Time;durP1;ratioP1;P1;durP2;ratioP2;P2;SDS_P1;SDS_P2;PMS_P1;PMS_P2;Temp;Humidity;BMP_temperature;BMP_pressure;BME280_temperature;BME280_humidity;BME280_pressure;Samples;Min_cycle;Max_cycle;Signal;HPM_P1;HPM_P2
2021/08/03 00:02:23;;;;;;;5.20;3.73;;;;;;;;;;5046519;28;20181;-82
2021/08/03 00:04:51;;;;;;;7.30;4.75;;;;;;;;;;5043952;28;20535;-82
2021/08/03 00:07:21;;;;;;;8.65;5.28;;;;;;;;;;5028519;28;20175;-81
2021/08/03 00:09:48;;;;;;;6.28;4.25;;;;;;;;;;5042637;28;20205;-82
2021/08/03 00:12:15;;;;;;;5.35;3.47;;;;;;;;;;5039662;28;20190;-82
2021/08/03 00:14:45;;;;;;;7.70;4.88;;;;;;;;;;5033531;28;20289;-82
2021/08/03 00:17:16;;;;;;;8.50;4.30;;;;;;;;;;5042188;28;20239;-82
2021/08/03 00:19:42;;;;;;;5.03;4.32;;;;;;;;;;5040489;28;20186;-82
2021/08/03 00:22:08;;;;;;;5.32;4.32;;;;;;;;;;5037418;28;20174;-82
2021/08/03 00:24:38;;;;;;;5.78;4.80;;;;;;;;;;5035959;28;20217;-83
2021/08/03 00:27:05;;;;;;;5.22;4.10;;;;;;;;;;5036960;28;20193;-82
2021/08/03 00:29:31;;;;;;;5.75;4.55;;;;;;;;;;5044281;28;20205;-82
2021/08/03 00:31:57;;;;;;;5.45;4.80;;;;;;;;;;5028682;28;20173;-82
2021/08/03 00:34:24;;;;;;;7.32;4.82;;;;;;;;;;5028321;28;20179;-82
2021/08/03 00:36:50;;;;;;;9.60;4.32;;;;;;;;;;5041740;28;20245;-82
2021/08/03 00:39:16;;;;;;;5.88;4.00;;;;;;;;;;5045615;28;20185;-82
2021/08/03 00:41:45;;;;;;;4.97;3.70;;;;;;;;;;5045193;28;20188;-82
2021/08/03 00:44:11;;;;;;;5.35;4.72;;;;;;;;;;5045585;28;20468;-82
2021/08/03 00:46:37;;;;;;;7.05;4.30;;;;;;;;;;5026187;28;20217;-82
2021/08/03 00:49:03;;;;;;;8.95;4.63;;;;;;;;;;5044353;28;20201;-82
2021/08/03 00:51:30;;;;;;;8.85;4.90;;;;;;;;;;5036320;28;20196;-82
2021/08/03 00:53:56;;;;;;;5.65;4.95;;;;;;;;;;5032529;28;20198;-82
2021/08/03 00:56:22;;;;;;;6.53;4.57;;;;;;;;;;5029237;28;20262;-82
2021/08/03 00:58:48;;;;;;;6.13;4.63;;;;;;;;;;5026656;28;20174;-82
2021/08/03 01:01:14;;;;;;;8.43;4.15;;;;;;;;;;5028219;28;20197;-82
2021/08/03 01:03:40;;;;;;;7.67;5.30;;;;;;;;;;5043281;28;20193;-82
2021/08/03 01:06:13;;;;;;;7.03;4.30;;;;;;;;;;5037704;28;20445;-82
2021/08/03 01:08:48;;;;;;;5.18;4.03;;;;;;;;;;5034851;28;20236;-82
2021/08/03 01:11:19;;;;;;;8.15;5.38;;;;;;;;;;5044679;28;20252;-82
2021/08/03 01:13:51;;;;;;;5.50;4.05;;;;;;;;;;5043498;28;20587;-82
2021/08/03 01:16:41;;;;;;;6.38;4.72;;;;;;;;;;5044444;28;20178;-82
2021/08/03 01:19:35;;;;;;;6.63;4.22;;;;;;;;;;5045448;28;20197;-82
2021/08/03 01:22:11;;;;;;;9.32;4.13;;;;;;;;;;5044230;28;20185;-82
2021/08/03 01:24:56;;;;;;;10.88;4.72;;;;;;;;;;5044344;28;20185;-82
2021/08/03 01:27:31;;;;;;;5.30;4.63;;;;;;;;;;5043824;28;20194;-82
2021/08/03 01:29:57;;;;;;;7.25;4.93;;;;;;;;;;5044208;28;20198;-83
2021/08/03 01:32:27;;;;;;;9.05;4.97;;;;;;;;;;5037500;28;20196;-83
2021/08/03 01:34:55;;;;;;;7.57;4.60;;;;;;;;;;5046615;28;20177;-82
2021/08/03 01:37:22;;;;;;;5.20;4.25;;;;;;;;;;5032381;28;20182;-83
2021/08/03 01:40:18;;;;;;;6.25;4.57;;;;;;;;;;5044828;28;20253;-83
2021/08/03 01:42:44;;;;;;;6.45;4.75;;;;;;;;;;5032670;28;20289;-82
2021/08/03 01:45:12;;;;;;;8.52;5.55;;;;;;;;;;5036650;28;20185;-83
2021/08/03 01:47:38;;;;;;;6.32;4.72;;;;;;;;;;5045930;28;20188;-82
2021/08/03 01:50:05;;;;;;;10.48;5.10;;;;;;;;;;5032378;28;20606;-83
2021/08/03 01:52:32;;;;;;;6.85;4.68;;;;;;;;;;5043923;28;20623;-82
2021/08/03 01:54:58;;;;;;;5.40;4.07;;;;;;;;;;5059616;28;20178;-83
2021/08/03 01:57:25;;;;;;;5.68;4.93;;;;;;;;;;5045885;28;20253;-83
2021/08/03 01:59:54;;;;;;;10.35;5.80;;;;;;;;;;5047030;28;20196;-82
2021/08/03 02:02:21;;;;;;;9.32;5.60;;;;;;;;;;5047737;28;20185;-82
2021/08/03 02:04:48;;;;;;;6.78;5.63;;;;;;;;;;5047002;28;20188;-81
2021/08/03 02:07:19;;;;;;;8.07;5.60;;;;;;;;;;5045627;28;20181;-81
2021/08/03 02:09:46;;;;;;;7.88;5.32;;;;;;;;;;5045521;28;20236;-81
2021/08/03 02:12:12;;;;;;;9.95;5.30;;;;;;;;;;5048481;28;20640;-81
2021/08/03 02:14:44;;;;;;;8.18;5.32;;;;;;;;;;5046849;28;20280;-81
2021/08/03 02:17:13;;;;;;;11.43;5.85;;;;;;;;;;5043457;28;20218;-82
2021/08/03 02:19:39;;;;;;;7.80;6.55;;;;;;;;;;5028498;28;20213;-81
2021/08/03 02:22:06;;;;;;;11.17;5.30;;;;;;;;;;5034527;28;20194;-81
2021/08/03 02:24:32;;;;;;;11.70;6.55;;;;;;;;;;5045169;28;20478;-81
2021/08/03 02:26:58;;;;;;;9.27;5.20;;;;;;;;;;5043968;28;20191;-82
2021/08/03 02:29:24;;;;;;;8.50;5.87;;;;;;;;;;5031979;28;20356;-81
2021/08/03 02:31:53;;;;;;;16.63;5.90;;;;;;;;;;5029721;28;20510;-81
2021/08/03 02:34:22;;;;;;;8.23;6.60;;;;;;;;;;5030516;28;20206;-82
2021/08/03 02:36:49;;;;;;;11.75;6.57;;;;;;;;;;5036133;28;20182;-81
2021/08/03 02:39:16;;;;;;;10.35;6.35;;;;;;;;;;5041445;28;20212;-82
2021/08/03 02:41:43;;;;;;;11.63;6.10;;;;;;;;;;5041360;28;20186;-82
2021/08/03 02:44:10;;;;;;;9.73;5.88;;;;;;;;;;5041711;28;20185;-80
2021/08/03 02:46:39;;;;;;;10.15;6.10;;;;;;;;;;5041145;28;20204;-81
2021/08/03 02:49:07;;;;;;;11.20;6.07;;;;;;;;;;5033678;28;20198;-82
2021/08/03 02:51:37;;;;;;;13.13;6.15;;;;;;;;;;5042069;28;20187;-83
2021/08/03 02:54:12;;;;;;;14.85;5.55;;;;;;;;;;5039463;28;20654;-85
2021/08/03 02:56:39;;;;;;;8.50;6.40;;;;;;;;;;5046873;28;20184;-85
2021/08/03 02:59:07;;;;;;;11.82;5.60;;;;;;;;;;5046129;28;20185;-85
2021/08/03 03:01:35;;;;;;;15.15;6.85;;;;;;;;;;5044147;28;20174;-85
2021/08/03 03:04:06;;;;;;;14.05;6.47;;;;;;;;;;5039782;28;20178;-85
2021/08/03 03:06:32;;;;;;;13.32;5.90;;;;;;;;;;5038635;28;20197;-84
2021/08/03 03:08:59;;;;;;;11.70;5.13;;;;;;;;;;5046797;28;20269;-84
2021/08/03 03:11:27;;;;;;;9.75;4.70;;;;;;;;;;5045837;28;20641;-84
2021/08/03 03:13:56;;;;;;;7.40;5.07;;;;;;;;;;5046409;28;20228;-84
2021/08/03 03:16:25;;;;;;;9.40;4.90;;;;;;;;;;5029813;28;20175;-84
2021/08/03 03:18:52;;;;;;;6.60;4.55;;;;;;;;;;5046754;28;20197;-84
2021/08/03 03:21:19;;;;;;;9.15;5.05;;;;;;;;;;5046706;28;20197;-84
2021/08/03 03:23:48;;;;;;;8.13;5.00;;;;;;;;;;5044774;28;20189;-83
2021/08/03 03:26:14;;;;;;;12.32;4.80;;;;;;;;;;5033133;28;20240;-84
2021/08/03 03:28:41;;;;;;;11.25;4.85;;;;;;;;;;5044900;28;20202;-83
2021/08/03 03:31:08;;;;;;;14.82;6.10;;;;;;;;;;5030312;28;20201;-83
2021/08/03 03:33:36;;;;;;;13.88;6.10;;;;;;;;;;5033906;28;20190;-83
2021/08/03 03:36:03;;;;;;;11.85;4.82;;;;;;;;;;5036633;28;20181;-83
2021/08/03 03:38:30;;;;;;;10.05;5.00;;;;;;;;;;5043776;28;20182;-83
2021/08/03 03:40:57;;;;;;;11.40;5.53;;;;;;;;;;5043913;28;20189;-82
2021/08/03 03:43:23;;;;;;;11.00;4.90;;;;;;;;;;5040566;28;20184;-83
2021/08/03 03:46:09;;;;;;;11.82;4.68;;;;;;;;;;5045218;28;20220;-83
2021/08/03 03:48:39;;;;;;;9.95;4.25;;;;;;;;;;5068065;28;20202;-83
2021/08/03 03:51:07;;;;;;;7.68;3.97;;;;;;;;;;5033868;28;20216;-85
2021/08/03 03:53:36;;;;;;;10.20;4.65;;;;;;;;;;5033331;28;20189;-85
2021/08/03 03:56:03;;;;;;;11.18;4.53;;;;;;;;;;5047092;28;20237;-85
2021/08/03 03:58:31;;;;;;;8.45;5.28;;;;;;;;;;5043269;28;20173;-84
2021/08/03 04:00:57;;;;;;;10.13;4.72;;;;;;;;;;5054717;28;20198;-85
2021/08/03 04:03:25;;;;;;;6.93;1.85;;;;;;;;;;5041762;28;20185;-85
2021/08/03 04:05:53;;;;;;;2.85;1.65;;;;;;;;;;5044661;28;20281;-85
2021/08/03 04:08:19;;;;;;;6.65;2.20;;;;;;;;;;5043522;28;20476;-85
2021/08/03 04:10:45;;;;;;;5.85;2.10;;;;;;;;;;5028964;28;20178;-85
2021/08/03 04:13:12;;;;;;;10.43;2.00;;;;;;;;;;5030847;28;20614;-84
2021/08/03 04:15:38;;;;;;;4.47;2.20;;;;;;;;;;5042747;28;20186;-84
2021/08/03 04:18:04;;;;;;;3.90;1.30;;;;;;;;;;5044143;28;20259;-84
2021/08/03 04:20:31;;;;;;;5.70;2.38;;;;;;;;;;5045930;28;20185;-84
2021/08/03 04:22:57;;;;;;;3.42;1.60;;;;;;;;;;5026465;28;20192;-83
2021/08/03 04:25:23;;;;;;;2.75;1.70;;;;;;;;;;5027883;28;20236;-83
2021/08/03 04:27:49;;;;;;;5.85;1.70;;;;;;;;;;5032808;28;20189;-83
2021/08/03 04:30:16;;;;;;;5.35;2.03;;;;;;;;;;5040552;28;20185;-84
2021/08/03 04:32:42;;;;;;;5.72;1.90;;;;;;;;;;5043539;28;20252;-83
2021/08/03 04:35:09;;;;;;;4.95;2.28;;;;;;;;;;5045949;28;20181;-83
2021/08/03 04:37:38;;;;;;;3.92;1.77;;;;;;;;;;5027573;28;20261;-83
2021/08/03 04:40:05;;;;;;;3.95;1.55;;;;;;;;;;5045465;28;20173;-83
2021/08/03 04:42:31;;;;;;;4.70;1.70;;;;;;;;;;5037769;28;20444;-83
2021/08/03 04:44:57;;;;;;;1.98;1.80;;;;;;;;;;5038041;28;20212;-83
2021/08/03 04:47:23;;;;;;;6.97;1.85;;;;;;;;;;5045094;28;20188;-83
2021/08/03 04:49:49;;;;;;;3.97;2.30;;;;;;;;;;5042835;28;20225;-83
2021/08/03 04:52:15;;;;;;;3.10;1.87;;;;;;;;;;5043678;28;20428;-83
2021/08/03 04:54:41;;;;;;;6.20;1.95;;;;;;;;;;5036042;28;20421;-83
2021/08/03 04:57:07;;;;;;;5.47;1.70;;;;;;;;;;5032859;28;20205;-83
2021/08/03 04:59:33;;;;;;;2.95;2.20;;;;;;;;;;5031179;28;20953;-83
2021/08/03 05:02:01;;;;;;;4.75;2.17;;;;;;;;;;5028311;28;20193;-83
2021/08/03 05:04:29;;;;;;;1.50;1.40;;;;;;;;;;5032738;28;20173;-83
2021/08/03 05:06:55;;;;;;;3.92;2.15;;;;;;;;;;5049698;28;20227;-83
2021/08/03 05:09:21;;;;;;;3.53;2.95;;;;;;;;;;5046726;28;20207;-83
2021/08/03 05:11:47;;;;;;;3.37;1.47;;;;;;;;;;5048641;28;20189;-82
2021/08/03 05:14:13;;;;;;;1.95;1.67;;;;;;;;;;5049296;28;20969;-83
2021/08/03 05:16:39;;;;;;;4.13;2.03;;;;;;;;;;5046585;28;20178;-83
2021/08/03 05:19:05;;;;;;;2.20;1.40;;;;;;;;;;5049671;28;20191;-83
2021/08/03 05:21:31;;;;;;;2.87;1.90;;;;;;;;;;5041338;28;20454;-83
2021/08/03 05:23:57;;;;;;;6.70;2.57;;;;;;;;;;5041551;28;20447;-84
2021/08/03 05:26:23;;;;;;;3.20;1.80;;;;;;;;;;5049432;28;21163;-83
2021/08/03 05:28:49;;;;;;;3.80;1.92;;;;;;;;;;5046165;28;20217;-83
2021/08/03 05:31:15;;;;;;;1.50;1.40;;;;;;;;;;5033328;28;20240;-84
2021/08/03 05:33:41;;;;;;;2.80;1.50;;;;;;;;;;5035563;28;20429;-83
2021/08/03 05:36:07;;;;;;;3.57;1.73;;;;;;;;;;5042827;28;20493;-83
2021/08/03 05:38:33;;;;;;;2.78;1.63;;;;;;;;;;5042627;28;20436;-83
2021/08/03 05:40:59;;;;;;;2.88;1.50;;;;;;;;;;5046469;28;20184;-84
2021/08/03 05:43:25;;;;;;;2.70;1.33;;;;;;;;;;5042660;28;20265;-83
2021/08/03 05:45:51;;;;;;;1.27;1.17;;;;;;;;;;5048246;28;20446;-82
2021/08/03 05:48:17;;;;;;;3.73;1.97;;;;;;;;;;5047091;28;20472;-83
2021/08/03 05:50:43;;;;;;;1.03;0.90;;;;;;;;;;5046085;28;20486;-83
2021/08/03 05:53:09;;;;;;;1.30;1.20;;;;;;;;;;5047401;28;20573;-84
2021/08/03 05:55:35;;;;;;;4.55;0.93;;;;;;;;;;5030424;28;20182;-82
2021/08/03 05:58:01;;;;;;;3.20;1.20;;;;;;;;;;5035224;28;20178;-83
2021/08/03 06:00:28;;;;;;;3.08;1.17;;;;;;;;;;5034295;28;20429;-84
2021/08/03 06:02:54;;;;;;;1.90;1.38;;;;;;;;;;5039164;28;20192;-84
2021/08/03 06:05:20;;;;;;;1.75;1.10;;;;;;;;;;5049138;28;20219;-84
2021/08/03 06:07:50;;;;;;;2.85;1.10;;;;;;;;;;5028317;28;20188;-83
2021/08/03 06:10:16;;;;;;;2.85;1.10;;;;;;;;;;5042276;28;20193;-83
2021/08/03 06:12:46;;;;;;;3.00;1.50;;;;;;;;;;5046525;28;20186;-84
2021/08/03 06:15:13;;;;;;;2.42;1.38;;;;;;;;;;5040205;28;20309;-84
2021/08/03 06:17:42;;;;;;;2.28;1.42;;;;;;;;;;5036549;28;20218;-84
2021/08/03 06:20:09;;;;;;;1.63;1.40;;;;;;;;;;5033940;28;20207;-84
2021/08/03 06:22:37;;;;;;;2.15;1.23;;;;;;;;;;5045051;28;20735;-83
2021/08/03 06:25:04;;;;;;;1.40;1.30;;;;;;;;;;5036697;28;20174;-83
2021/08/03 06:27:31;;;;;;;5.88;2.15;;;;;;;;;;5044279;28;20193;-84
2021/08/03 06:30:00;;;;;;;4.25;1.90;;;;;;;;;;5046290;28;20280;-84
2021/08/03 06:32:27;;;;;;;2.58;1.60;;;;;;;;;;5045676;28;20186;-84
2021/08/03 06:34:53;;;;;;;2.60;1.95;;;;;;;;;;5045973;28;20193;-84
2021/08/03 06:37:19;;;;;;;2.13;2.03;;;;;;;;;;5031085;28;20188;-82
2021/08/03 06:39:45;;;;;;;2.53;1.97;;;;;;;;;;5046727;28;20425;-84
2021/08/03 06:42:23;;;;;;;3.45;1.83;;;;;;;;;;5042389;28;21016;-84
2021/08/03 06:45:09;;;;;;;2.22;1.77;;;;;;;;;;5035925;28;20184;-84
2021/08/03 06:47:41;;;;;;;3.00;1.63;;;;;;;;;;5045647;28;20201;-84
2021/08/03 06:50:09;;;;;;;3.25;2.05;;;;;;;;;;5031352;28;20201;-83
2021/08/03 06:52:36;;;;;;;2.88;2.13;;;;;;;;;;5028935;28;20241;-84
2021/08/03 06:55:03;;;;;;;4.40;2.25;;;;;;;;;;5046456;28;20182;-84
2021/08/03 06:57:33;;;;;;;3.35;2.05;;;;;;;;;;5045608;28;20185;-84
2021/08/03 07:00:02;;;;;;;4.53;2.53;;;;;;;;;;5046886;28;20216;-83
2021/08/03 07:02:33;;;;;;;5.13;3.20;;;;;;;;;;5048324;28;20529;-84
2021/08/03 07:05:00;;;;;;;4.82;3.38;;;;;;;;;;5047101;28;20188;-85
2021/08/03 07:07:27;;;;;;;3.67;2.60;;;;;;;;;;5037219;28;20183;-84
2021/08/03 07:09:55;;;;;;;3.95;2.90;;;;;;;;;;5047364;28;20213;-82
2021/08/03 07:12:21;;;;;;;3.00;2.42;;;;;;;;;;5044315;28;20603;-83
2021/08/03 07:14:48;;;;;;;4.60;2.95;;;;;;;;;;5048005;28;20208;-83
2021/08/03 07:17:15;;;;;;;3.50;3.17;;;;;;;;;;5043160;28;20226;-84
2021/08/03 07:19:41;;;;;;;3.20;2.90;;;;;;;;;;5027647;28;20182;-83
2021/08/03 07:22:09;;;;;;;3.42;3.13;;;;;;;;;;5045661;28;20273;-84
2021/08/03 07:24:35;;;;;;;3.17;2.25;;;;;;;;;;5036594;28;20610;-84
2021/08/03 07:27:01;;;;;;;3.20;2.57;;;;;;;;;;5037760;28;20208;-83
2021/08/03 07:29:27;;;;;;;3.67;2.80;;;;;;;;;;5045393;28;20460;-83
2021/08/03 07:31:54;;;;;;;4.70;2.65;;;;;;;;;;5045536;28;20194;-84
2021/08/03 07:34:20;;;;;;;5.20;3.03;;;;;;;;;;5045017;28;20185;-83
2021/08/03 07:36:46;;;;;;;4.38;3.20;;;;;;;;;;5046906;28;20241;-84
2021/08/03 07:39:12;;;;;;;4.43;3.43;;;;;;;;;;5039231;28;20190;-83
2021/08/03 07:41:38;;;;;;;3.55;3.25;;;;;;;;;;5034042;28;20437;-82
2021/08/03 07:44:05;;;;;;;5.50;3.13;;;;;;;;;;5031992;28;24089;-83
2021/08/03 07:46:32;;;;;;;4.03;3.20;;;;;;;;;;5042885;28;20177;-83
2021/08/03 07:48:59;;;;;;;3.08;2.88;;;;;;;;;;5047988;28;20206;-83
2021/08/03 07:51:25;;;;;;;3.22;2.92;;;;;;;;;;5033458;28;20235;-83
2021/08/03 07:53:51;;;;;;;5.07;3.42;;;;;;;;;;5033531;28;20189;-84
2021/08/03 07:56:18;;;;;;;3.25;2.40;;;;;;;;;;5044427;28;20197;-83
2021/08/03 07:58:45;;;;;;;7.72;3.45;;;;;;;;;;5026924;28;20185;-84
2021/08/03 08:01:11;;;;;;;2.80;2.60;;;;;;;;;;5028933;28;20193;-82
2021/08/03 08:03:37;;;;;;;2.50;2.30;;;;;;;;;;5033087;28;20245;-83
2021/08/03 08:06:04;;;;;;;3.63;2.65;;;;;;;;;;5037569;28;20217;-84
2021/08/03 08:08:31;;;;;;;2.63;2.28;;;;;;;;;;5041051;28;20653;-83
2021/08/03 08:10:57;;;;;;;4.10;2.30;;;;;;;;;;5042325;28;20189;-84
2021/08/03 08:13:23;;;;;;;2.53;2.33;;;;;;;;;;5042468;28;20170;-84
2021/08/03 08:15:49;;;;;;;4.05;2.28;;;;;;;;;;5034828;28;20174;-83
2021/08/03 08:18:15;;;;;;;3.70;2.55;;;;;;;;;;5037991;28;20222;-84
2021/08/03 08:20:42;;;;;;;2.47;2.28;;;;;;;;;;5041945;28;20245;-85
2021/08/03 08:23:08;;;;;;;3.40;2.85;;;;;;;;;;5030151;28;20632;-84
2021/08/03 08:25:34;;;;;;;5.55;3.20;;;;;;;;;;5043470;28;20216;-83
2021/08/03 08:28:00;;;;;;;4.93;4.47;;;;;;;;;;5033107;28;20178;-85
2021/08/03 08:30:26;;;;;;;6.18;3.05;;;;;;;;;;5040085;28;20440;-85
2021/08/03 08:32:53;;;;;;;5.07;3.30;;;;;;;;;;5046086;28;20219;-84
2021/08/03 08:35:19;;;;;;;3.50;3.20;;;;;;;;;;5046301;28;20771;-86
2021/08/03 08:37:45;;;;;;;3.22;2.72;;;;;;;;;;5042023;28;20174;-85
2021/08/03 08:40:11;;;;;;;3.60;2.80;;;;;;;;;;5030222;28;20178;-85
2021/08/03 08:42:38;;;;;;;5.18;3.30;;;;;;;;;;5041189;28;20520;-86
2021/08/03 08:45:04;;;;;;;4.50;2.97;;;;;;;;;;5045886;28;20224;-84
2021/08/03 08:47:31;;;;;;;4.30;3.42;;;;;;;;;;5046081;28;20205;-85
2021/08/03 08:50:02;;;;;;;2.92;2.72;;;;;;;;;;5026791;28;20383;-83
2021/08/03 08:52:29;;;;;;;4.03;2.85;;;;;;;;;;5038174;28;20185;-83
2021/08/03 08:54:55;;;;;;;3.60;2.90;;;;;;;;;;5043378;28;20210;-85
2021/08/03 08:57:21;;;;;;;3.10;2.90;;;;;;;;;;5045805;28;20186;-84
2021/08/03 08:59:47;;;;;;;2.57;2.37;;;;;;;;;;5044380;28;20177;-83
2021/08/03 09:02:13;;;;;;;4.50;3.30;;;;;;;;;;5041278;28;20960;-83
2021/08/03 09:04:46;;;;;;;3.33;2.65;;;;;;;;;;5042096;28;20416;-83
2021/08/03 09:07:12;;;;;;;2.53;2.33;;;;;;;;;;5028395;28;20178;-83
2021/08/03 09:09:45;;;;;;;3.20;2.90;;;;;;;;;;5039697;28;20205;-81
2021/08/03 09:12:12;;;;;;;3.45;2.33;;;;;;;;;;5045465;28;20436;-82
2021/08/03 09:14:39;;;;;;;3.80;3.50;;;;;;;;;;5042146;28;20181;-82
2021/08/03 09:17:06;;;;;;;4.47;3.95;;;;;;;;;;5042440;28;20225;-82
2021/08/03 09:19:37;;;;;;;3.55;3.25;;;;;;;;;;5025602;28;20233;-81
2021/08/03 09:22:09;;;;;;;3.50;3.20;;;;;;;;;;5029984;28;20186;-81
2021/08/03 09:24:35;;;;;;;5.43;2.75;;;;;;;;;;5032388;28;20214;-81
2021/08/03 09:27:01;;;;;;;4.05;3.55;;;;;;;;;;5031901;28;20674;-81
2021/08/03 09:29:27;;;;;;;3.35;3.05;;;;;;;;;;5032638;28;20210;-81
2021/08/03 09:31:55;;;;;;;5.30;3.37;;;;;;;;;;5042221;28;20209;-80
2021/08/03 09:34:21;;;;;;;4.68;3.30;;;;;;;;;;5027556;28;20772;-80
2021/08/03 09:36:48;;;;;;;3.90;2.80;;;;;;;;;;5031684;28;20183;-81
2021/08/03 09:39:33;;;;;;;4.53;3.40;;;;;;;;;;5037504;28;20640;-81
2021/08/03 09:41:59;;;;;;;3.90;3.50;;;;;;;;;;5042217;28;20201;-81
2021/08/03 09:44:25;;;;;;;4.00;3.60;;;;;;;;;;5032866;28;20217;-81
2021/08/03 09:46:57;;;;;;;4.13;3.77;;;;;;;;;;5043586;28;20802;-81
2021/08/03 09:49:33;;;;;;;3.67;3.30;;;;;;;;;;5029718;28;20464;-80
2021/08/03 09:52:05;;;;;;;5.15;2.90;;;;;;;;;;5040847;28;20246;-80
2021/08/03 09:54:31;;;;;;;3.45;3.15;;;;;;;;;;5047734;28;20201;-81
2021/08/03 09:56:57;;;;;;;3.78;3.47;;;;;;;;;;5042662;28;20571;-80
2021/08/03 09:59:33;;;;;;;4.50;3.93;;;;;;;;;;5030267;28;20217;-80
2021/08/03 10:01:59;;;;;;;3.10;2.80;;;;;;;;;;5029915;28;20434;-81
2021/08/03 10:04:26;;;;;;;3.45;2.50;;;;;;;;;;5031381;28;20198;-82
2021/08/03 10:06:52;;;;;;;2.95;2.30;;;;;;;;;;5033951;28;20197;-79
2021/08/03 10:09:20;;;;;;;2.65;2.45;;;;;;;;;;5043715;28;20214;-81
2021/08/03 10:11:47;;;;;;;2.85;1.90;;;;;;;;;;5045476;28;20177;-80
2021/08/03 10:14:13;;;;;;;2.63;2.42;;;;;;;;;;5042813;28;20190;-81
2021/08/03 10:16:39;;;;;;;3.03;1.88;;;;;;;;;;5042404;28;20202;-81
2021/08/03 10:19:06;;;;;;;2.10;1.98;;;;;;;;;;5041067;28;20208;-81
2021/08/03 10:21:44;;;;;;;4.18;2.90;;;;;;;;;;5038827;28;20277;-82
2021/08/03 10:24:10;;;;;;;2.83;2.63;;;;;;;;;;5035039;28;20265;-82
2021/08/03 10:26:36;;;;;;;2.70;2.50;;;;;;;;;;5037235;28;20233;-81
2021/08/03 10:29:21;;;;;;;2.70;2.50;;;;;;;;;;5046018;28;20281;-82
2021/08/03 10:31:47;;;;;;;2.63;2.42;;;;;;;;;;5028880;28;20175;-81
2021/08/03 10:34:33;;;;;;;2.65;2.40;;;;;;;;;;5032967;28;20185;-80
2021/08/03 10:36:59;;;;;;;2.85;2.65;;;;;;;;;;5041136;28;20178;-81
2021/08/03 10:39:25;;;;;;;4.20;2.77;;;;;;;;;;5047645;28;20213;-81
2021/08/03 10:41:54;;;;;;;3.30;3.03;;;;;;;;;;5044575;28;20470;-82
2021/08/03 10:44:40;;;;;;;3.33;3.00;;;;;;;;;;5047649;28;20209;-81
2021/08/03 10:47:25;;;;;;;2.70;2.50;;;;;;;;;;5045185;28;20283;-81
2021/08/03 10:49:59;;;;;;;3.00;2.50;;;;;;;;;;5029023;28;20208;-81
2021/08/03 10:52:44;;;;;;;3.88;2.70;;;;;;;;;;5030781;28;20177;-82
2021/08/03 10:55:27;;;;;;;2.00;1.80;;;;;;;;;;5045060;28;20178;-83
2021/08/03 10:58:13;;;;;;;3.13;2.58;;;;;;;;;;5047609;28;20646;-84
2021/08/03 11:00:55;;;;;;;2.50;2.30;;;;;;;;;;5040263;28;20238;-82
2021/08/03 11:03:34;;;;;;;3.15;2.40;;;;;;;;;;5039158;28;20179;-83
2021/08/03 11:06:06;;;;;;;4.95;3.55;;;;;;;;;;5033555;28;20214;-83
2021/08/03 11:08:33;;;;;;;2.83;2.60;;;;;;;;;;5033967;28;20210;-84
2021/08/03 11:11:06;;;;;;;3.17;2.80;;;;;;;;;;5031038;28;20187;-82
2021/08/03 11:13:36;;;;;;;4.28;3.03;;;;;;;;;;5041261;28;20220;-81
2021/08/03 11:16:02;;;;;;;2.67;2.47;;;;;;;;;;5048663;28;20183;-84
2021/08/03 11:18:39;;;;;;;4.65;3.05;;;;;;;;;;5036690;28;20219;-83
2021/08/03 11:21:05;;;;;;;3.50;3.20;;;;;;;;;;5036753;28;20188;-84
2021/08/03 11:23:50;;;;;;;4.75;3.05;;;;;;;;;;5044166;28;20194;-83
2021/08/03 11:26:22;;;;;;;2.63;2.38;;;;;;;;;;5033952;28;20209;-83
2021/08/03 11:28:58;;;;;;;2.90;2.70;;;;;;;;;;5045058;28;20558;-83
2021/08/03 11:31:38;;;;;;;4.13;2.90;;;;;;;;;;5043764;28;20179;-82
2021/08/03 11:34:04;;;;;;;4.25;3.42;;;;;;;;;;5045801;28;20548;-83
2021/08/03 11:36:30;;;;;;;4.00;3.08;;;;;;;;;;5044090;28;20188;-84
2021/08/03 11:38:56;;;;;;;4.40;3.25;;;;;;;;;;5046377;28;20205;-83
2021/08/03 11:41:23;;;;;;;4.73;2.90;;;;;;;;;;5044817;28;20258;-82
2021/08/03 11:43:49;;;;;;;3.88;3.35;;;;;;;;;;5027359;28;20560;-83
2021/08/03 11:46:24;;;;;;;6.30;3.20;;;;;;;;;;5029596;28;20245;-83
2021/08/03 11:49:01;;;;;;;4.50;2.95;;;;;;;;;;5045864;28;20218;-81
2021/08/03 11:51:33;;;;;;;5.13;3.47;;;;;;;;;;5039349;28;20240;-82
2021/08/03 11:54:16;;;;;;;5.80;3.15;;;;;;;;;;5032809;28;20249;-83
2021/08/03 11:56:42;;;;;;;3.30;2.95;;;;;;;;;;5035927;28;20179;-82
2021/08/03 11:59:09;;;;;;;6.78;3.20;;;;;;;;;;5029993;28;20205;-83
2021/08/03 12:01:48;;;;;;;3.55;3.25;;;;;;;;;;5026037;28;20243;-82
2021/08/03 12:04:15;;;;;;;4.55;3.00;;;;;;;;;;5044955;28;20183;-82
2021/08/03 12:06:41;;;;;;;3.22;3.03;;;;;;;;;;5044007;28;20192;-82
2021/08/03 12:09:08;;;;;;;2.55;2.35;;;;;;;;;;5046554;28;20211;-82
2021/08/03 12:11:34;;;;;;;3.00;2.70;;;;;;;;;;5045694;28;20189;-82
2021/08/03 12:14:08;;;;;;;2.63;2.42;;;;;;;;;;5044797;28;20535;-82
2021/08/03 12:16:34;;;;;;;2.83;2.63;;;;;;;;;;5035503;28;20277;-82
2021/08/03 12:19:00;;;;;;;3.20;2.30;;;;;;;;;;5045277;28;20201;-83
2021/08/03 12:21:34;;;;;;;2.40;2.20;;;;;;;;;;5042956;28;20448;-81
2021/08/03 12:24:04;;;;;;;3.70;2.47;;;;;;;;;;5043379;28;20447;-83
2021/08/03 12:26:30;;;;;;;2.50;2.30;;;;;;;;;;5044592;28;20432;-84
2021/08/03 12:28:57;;;;;;;2.83;2.63;;;;;;;;;;5044440;28;20498;-83
2021/08/03 12:31:25;;;;;;;3.77;2.80;;;;;;;;;;5043270;28;20419;-83
2021/08/03 12:33:52;;;;;;;3.63;3.07;;;;;;;;;;5032544;28;20464;-83
2021/08/03 12:36:21;;;;;;;3.00;2.70;;;;;;;;;;5033363;28;20440;-85
2021/08/03 12:39:07;;;;;;;3.20;2.90;;;;;;;;;;5037069;28;20947;-84
2021/08/03 12:41:33;;;;;;;3.57;3.23;;;;;;;;;;5044163;28;20419;-83
2021/08/03 12:44:00;;;;;;;2.70;2.50;;;;;;;;;;5042536;28;20418;-84
2021/08/03 12:46:37;;;;;;;2.50;2.30;;;;;;;;;;5027636;28;20233;-84
2021/08/03 12:49:04;;;;;;;2.80;2.60;;;;;;;;;;5044797;28;20518;-85
2021/08/03 12:51:31;;;;;;;3.37;3.07;;;;;;;;;;5034957;28;20433;-83
2021/08/03 12:54:30;;;;;;;2.50;2.40;;;;;;;;;;5031448;28;20449;-84
2021/08/03 12:56:57;;;;;;;3.13;2.83;;;;;;;;;;4989499;28;20444;-84
2021/08/03 12:59:36;;;;;;;2.70;2.50;;;;;;;;;;5009475;28;20482;-82
2021/08/03 13:02:03;;;;;;;3.40;3.00;;;;;;;;;;5039981;28;20463;-85
2021/08/03 13:04:29;;;;;;;3.00;2.73;;;;;;;;;;5038097;28;20404;-83
2021/08/03 13:06:57;;;;;;;3.30;3.00;;;;;;;;;;5022941;28;20514;-83
2021/08/03 13:09:23;;;;;;;3.27;2.97;;;;;;;;;;5014282;28;20498;-85
2021/08/03 13:11:49;;;;;;;3.70;3.33;;;;;;;;;;4997884;28;20454;-82
2021/08/03 13:14:15;;;;;;;2.77;2.53;;;;;;;;;;5037177;28;20404;-84
2021/08/03 13:16:41;;;;;;;4.73;3.23;;;;;;;;;;5037930;28;20417;-84
2021/08/03 13:19:07;;;;;;;3.33;2.73;;;;;;;;;;5000984;28;20408;-84
2021/08/03 13:21:33;;;;;;;2.93;2.73;;;;;;;;;;5022887;28;20438;-85
2021/08/03 13:23:59;;;;;;;3.17;2.87;;;;;;;;;;5040630;28;20433;-83
2021/08/03 13:26:25;;;;;;;3.10;2.80;;;;;;;;;;5026678;28;20447;-82
2021/08/03 13:28:51;;;;;;;2.80;2.60;;;;;;;;;;5008995;28;20638;-83
2021/08/03 13:31:17;;;;;;;2.37;2.13;;;;;;;;;;5012537;28;20433;-84
2021/08/03 13:33:43;;;;;;;2.10;2.00;;;;;;;;;;5045889;28;20410;-85
2021/08/03 13:36:10;;;;;;;2.63;2.10;;;;;;;;;;5046556;28;20436;-83
2021/08/03 13:38:36;;;;;;;4.03;2.30;;;;;;;;;;5045849;28;20463;-83
2021/08/03 13:41:02;;;;;;;2.50;2.07;;;;;;;;;;5030691;28;20418;-83
2021/08/03 13:43:28;;;;;;;2.93;2.73;;;;;;;;;;5031410;28;20391;-83
2021/08/03 13:45:54;;;;;;;3.60;2.50;;;;;;;;;;5047402;28;21028;-84
2021/08/03 13:48:20;;;;;;;2.90;2.70;;;;;;;;;;5047514;28;20467;-83
2021/08/03 13:50:47;;;;;;;2.67;2.47;;;;;;;;;;5044423;28;20420;-84
2021/08/03 13:53:13;;;;;;;5.82;2.53;;;;;;;;;;5033265;28;20413;-83
2021/08/03 13:55:39;;;;;;;2.50;2.30;;;;;;;;;;5029788;28;20330;-84
2021/08/03 13:58:05;;;;;;;2.53;2.33;;;;;;;;;;5048988;28;20177;-84
2021/08/03 14:00:31;;;;;;;2.57;2.37;;;;;;;;;;5046342;28;20459;-83
2021/08/03 14:02:57;;;;;;;2.20;2.00;;;;;;;;;;5043776;28;20423;-84
2021/08/03 14:05:23;;;;;;;3.80;2.27;;;;;;;;;;5033884;28;20398;-85
2021/08/03 14:07:49;;;;;;;2.80;2.33;;;;;;;;;;5029269;28;20414;-85
2021/08/03 14:10:15;;;;;;;2.70;2.50;;;;;;;;;;5047811;28;20471;-82
2021/08/03 14:12:41;;;;;;;2.77;2.57;;;;;;;;;;5036252;28;20432;-83
2021/08/03 14:15:08;;;;;;;2.60;1.83;;;;;;;;;;5035219;28;20410;-84
2021/08/03 14:17:34;;;;;;;2.30;2.20;;;;;;;;;;5037102;28;20529;-85
2021/08/03 14:20:00;;;;;;;2.50;2.30;;;;;;;;;;5030493;28;20414;-83
2021/08/03 14:22:26;;;;;;;2.60;2.20;;;;;;;;;;5030889;28;20428;-84
2021/08/03 14:24:52;;;;;;;2.77;2.23;;;;;;;;;;5047408;28;20415;-84
2021/08/03 14:27:18;;;;;;;3.07;2.20;;;;;;;;;;5038134;28;20416;-82
2021/08/03 14:29:45;;;;;;;2.27;2.10;;;;;;;;;;5036053;28;20446;-84
2021/08/03 14:32:11;;;;;;;2.10;1.90;;;;;;;;;;5047901;28;20503;-83
2021/08/03 14:34:37;;;;;;;1.90;1.80;;;;;;;;;;5044615;28;20391;-83
2021/08/03 14:37:03;;;;;;;2.63;2.43;;;;;;;;;;5041415;28;20391;-83
2021/08/03 14:39:29;;;;;;;3.43;2.27;;;;;;;;;;5038485;28;20426;-84
2021/08/03 14:41:55;;;;;;;1.97;1.87;;;;;;;;;;5033517;28;20524;-82
2021/08/03 14:44:21;;;;;;;2.80;2.60;;;;;;;;;;5033425;28;20459;-83
2021/08/03 14:46:47;;;;;;;3.50;1.70;;;;;;;;;;5047279;28;20431;-84
2021/08/03 14:49:13;;;;;;;2.73;2.53;;;;;;;;;;5044733;28;20464;-84